Pagrindinis puslapis
METAR-TAF:

METAR-TAF

Oro uostai :

Igvasu, Argentina

platuma: 25-44S, ilguma: 054-28W, Aukštis: 270 m

Dabartinis oras

Ataskaita buvo paskelbta 57 minutes, ne 02:00 UTC
Vėjas 6 kt iš Pietų
Temperatūra 20°C
Drėgmė 78%
Slėgis 1017 hPa
Matomumas 10 km arba daugiau
nėra debesų žemiau 1500 m ir nėra kamuolinių lietaus debesų

METAR: SARI 220200Z 18006KT CAVOK 20/16 Q1017

Laikas: 23:57 (02:57 UTC)

Prognozė

Ataskaita buvo paskelbta 3 valandos ir 57 minutes, ne 23:00 UTC
Prognozė galioja nuo 22 metu 00 UTC su 22 metu 24 UTC
Vėjas 5 kt iš Pietų
Matomumas 10 km arba daugiau
nėra debesų žemiau 1500 m ir nėra kamuolinių lietaus debesų

TAF: SARI 212300Z 2200/2224 18005KT CAVOK TX30/2219Z TN18/2209Z

Orai ataskaitas ir orų prognozės (METAR, TAF).

turimą stotys yra geltonos ir raudonos taškus žemėlapyje.

Perkelti pele per norėdami pamatyti stoties vardą.

Tada spustelėkite, norėdami matyti oro stebėjimo ir prognozės.

Norėdami pakeisti žemėlapį: spustelėkite ant žalios mygtukų su juodo kryžiaus žemyn,; žalią mygtuką su brūkšneliu, jei norite nutolinti; arba žalių rodyklių gretimoms žemėlapius.


METAR-TAF: